sensor_id;sensor_type;location;lat;lon;timestamp;P1;durP1;ratioP1;P2;durP2;ratioP2
63581;SDS011;49727;51.078;17.066;2022-10-01T00:21:09;40.70;;;20.93;;
63581;SDS011;49727;51.078;17.066;2022-10-01T00:36:12;36.27;;;20.67;;
63581;SDS011;49727;51.078;17.066;2022-10-01T00:51:12;33.88;;;20.02;;
63581;SDS011;49727;51.078;17.066;2022-10-01T01:06:13;35.58;;;19.73;;
63581;SDS011;49727;51.078;17.066;2022-10-01T01:21:24;33.53;;;20.33;;
63581;SDS011;49727;51.078;17.066;2022-10-01T01:36:30;38.40;;;19.37;;
63581;SDS011;49727;51.078;17.066;2022-10-01T02:22:15;30.83;;;17.63;;
63581;SDS011;49727;51.078;17.066;2022-10-01T02:37:20;42.25;;;19.80;;
63581;SDS011;49727;51.078;17.066;2022-10-01T03:07:42;87.95;;;20.20;;
63581;SDS011;49727;51.078;17.066;2022-10-01T03:22:43;61.15;;;20.23;;
63581;SDS011;49727;51.078;17.066;2022-10-01T03:37:44;36.97;;;15.55;;
63581;SDS011;49727;51.078;17.066;2022-10-01T03:52:46;91.28;;;16.70;;
63581;SDS011;49727;51.078;17.066;2022-10-01T04:07:47;111.70;;;19.02;;
63581;SDS011;49727;51.078;17.066;2022-10-01T04:22:48;100.13;;;20.75;;
63581;SDS011;49727;51.078;17.066;2022-10-01T04:37:59;74.70;;;19.02;;
63581;SDS011;49727;51.078;17.066;2022-10-01T04:53:02;101.22;;;17.58;;
63581;SDS011;49727;51.078;17.066;2022-10-01T05:08:02;61.58;;;19.38;;
63581;SDS011;49727;51.078;17.066;2022-10-01T05:23:02;44.20;;;14.43;;
63581;SDS011;49727;51.078;17.066;2022-10-01T05:38:03;38.53;;;14.05;;
63581;SDS011;49727;51.078;17.066;2022-10-01T05:53:03;38.40;;;16.45;;
63581;SDS011;49727;51.078;17.066;2022-10-01T06:08:05;22.13;;;13.18;;
63581;SDS011;49727;51.078;17.066;2022-10-01T06:23:06;20.93;;;13.20;;
63581;SDS011;49727;51.078;17.066;2022-10-01T06:38:12;22.60;;;12.63;;
63581;SDS011;49727;51.078;17.066;2022-10-01T06:53:13;19.05;;;12.82;;
63581;SDS011;49727;51.078;17.066;2022-10-01T07:08:14;17.47;;;11.13;;
63581;SDS011;49727;51.078;17.066;2022-10-01T07:23:15;17.23;;;11.57;;
63581;SDS011;49727;51.078;17.066;2022-10-01T07:38:16;15.43;;;11.55;;
63581;SDS011;49727;51.078;17.066;2022-10-01T07:53:16;15.65;;;11.70;;
63581;SDS011;49727;51.078;17.066;2022-10-01T08:08:17;15.13;;;11.35;;
63581;SDS011;49727;51.078;17.066;2022-10-01T08:23:17;15.10;;;10.70;;
63581;SDS011;49727;51.078;17.066;2022-10-01T08:38:18;13.38;;;9.60;;
63581;SDS011;49727;51.078;17.066;2022-10-01T09:08:33;10.63;;;8.67;;
63581;SDS011;49727;51.078;17.066;2022-10-01T09:24:02;8.13;;;7.03;;
63581;SDS011;49727;51.078;17.066;2022-10-01T09:39:17;13.93;;;7.17;;
63581;SDS011;49727;51.078;17.066;2022-10-01T09:54:28;9.67;;;6.60;;
63581;SDS011;49727;51.078;17.066;2022-10-01T10:09:34;10.63;;;6.80;;
63581;SDS011;49727;51.078;17.066;2022-10-01T10:24:35;13.35;;;8.63;;
63581;SDS011;49727;51.078;17.066;2022-10-01T10:39:36;8.18;;;5.53;;
63581;SDS011;49727;51.078;17.066;2022-10-01T10:54:40;8.10;;;4.70;;
63581;SDS011;49727;51.078;17.066;2022-10-01T11:40:56;3.97;;;2.50;;
63581;SDS011;49727;51.078;17.066;2022-10-01T11:56:17;4.60;;;2.63;;
63581;SDS011;49727;51.078;17.066;2022-10-01T12:11:50;7.63;;;1.80;;
63581;SDS011;49727;51.078;17.066;2022-10-01T12:57:56;2.10;;;1.57;;
63581;SDS011;49727;51.078;17.066;2022-10-01T13:28:34;2.37;;;1.70;;
63581;SDS011;49727;51.078;17.066;2022-10-01T13:44:03;1.60;;;1.20;;
63581;SDS011;49727;51.078;17.066;2022-10-01T13:59:33;3.00;;;1.70;;
63581;SDS011;49727;51.078;17.066;2022-10-01T14:14:36;2.17;;;1.60;;
63581;SDS011;49727;51.078;17.066;2022-10-01T14:45:21;3.27;;;2.17;;
63581;SDS011;49727;51.078;17.066;2022-10-01T15:00:23;5.80;;;2.63;;
63581;SDS011;49727;51.078;17.066;2022-10-01T15:15:27;4.70;;;2.53;;
63581;SDS011;49727;51.078;17.066;2022-10-01T15:30:34;2.57;;;1.20;;
63581;SDS011;49727;51.078;17.066;2022-10-01T15:45:35;3.63;;;1.17;;
63581;SDS011;49727;51.078;17.066;2022-10-01T16:31:10;6.00;;;3.47;;
63581;SDS011;49727;51.078;17.066;2022-10-01T16:46:10;5.10;;;2.75;;
63581;SDS011;49727;51.078;17.066;2022-10-01T17:01:12;4.53;;;2.40;;
63581;SDS011;49727;51.078;17.066;2022-10-01T17:16:13;4.63;;;2.20;;
63581;SDS011;49727;51.078;17.066;2022-10-01T17:31:14;4.53;;;2.63;;
63581;SDS011;49727;51.078;17.066;2022-10-01T17:46:15;5.53;;;3.33;;
63581;SDS011;49727;51.078;17.066;2022-10-01T18:01:16;7.22;;;4.10;;
63581;SDS011;49727;51.078;17.066;2022-10-01T18:16:18;8.70;;;3.83;;
63581;SDS011;49727;51.078;17.066;2022-10-01T18:31:22;6.80;;;3.60;;
63581;SDS011;49727;51.078;17.066;2022-10-01T18:46:45;5.73;;;3.13;;
63581;SDS011;49727;51.078;17.066;2022-10-01T19:32:29;6.00;;;2.97;;
63581;SDS011;49727;51.078;17.066;2022-10-01T20:03:10;11.47;;;4.83;;
63581;SDS011;49727;51.078;17.066;2022-10-01T20:33:48;7.20;;;4.23;;
63581;SDS011;49727;51.078;17.066;2022-10-01T21:04:31;9.87;;;4.17;;
63581;SDS011;49727;51.078;17.066;2022-10-01T21:34:55;6.63;;;3.67;;
63581;SDS011;49727;51.078;17.066;2022-10-01T21:50:18;7.90;;;3.93;;
63581;SDS011;49727;51.078;17.066;2022-10-01T22:05:28;5.47;;;3.50;;
63581;SDS011;49727;51.078;17.066;2022-10-01T22:20:33;5.27;;;3.10;;
63581;SDS011;49727;51.078;17.066;2022-10-01T22:35:45;3.13;;;2.20;;
63581;SDS011;49727;51.078;17.066;2022-10-01T23:06:09;5.93;;;3.13;;
63581;SDS011;49727;51.078;17.066;2022-10-01T23:21:20;3.97;;;2.30;;
63581;SDS011;49727;51.078;17.066;2022-10-01T23:36:30;2.87;;;1.40;;
63581;SDS011;49727;51.078;17.066;2022-10-01T23:51:37;2.53;;;1.30;;
